createdAt,value
2017-11-29T00:00:38.948Z,88.9
2017-11-29T00:01:39.616Z,88.5
2017-11-29T00:02:40.284Z,88.8
2017-11-29T00:03:40.955Z,88.3
2017-11-29T00:04:41.622Z,88.4
2017-11-29T00:05:42.292Z,88.4
2017-11-29T00:06:42.959Z,88.3
2017-11-29T00:07:43.631Z,88.2
2017-11-29T00:08:44.296Z,88.5
2017-11-29T00:09:45.013Z,88.5
2017-11-29T00:10:45.681Z,88.4
2017-11-29T00:11:46.352Z,88.4
2017-11-29T00:12:47.070Z,88.7
2017-11-29T00:13:47.743Z,88.7
2017-11-29T00:14:48.408Z,88.8
2017-11-29T00:15:49.077Z,88.9
2017-11-29T00:16:49.746Z,88.9
2017-11-29T00:17:50.413Z,88.9
2017-11-29T00:18:51.083Z,88.9
2017-11-29T00:19:51.751Z,89.1
2017-11-29T00:20:52.420Z,88.9
2017-11-29T00:21:53.140Z,88.9
2017-11-29T00:22:53.806Z,88.6
2017-11-29T00:23:54.477Z,88.9
2017-11-29T00:24:55.145Z,89.1
2017-11-29T00:25:55.814Z,89.3
2017-11-29T00:26:56.482Z,89.6
2017-11-29T00:27:57.152Z,89.0
2017-11-29T00:28:57.820Z,89.4
2017-11-29T00:29:58.489Z,89.0
2017-11-29T00:30:59.159Z,89.3
2017-11-29T00:31:59.828Z,89.3
2017-11-29T00:33:00.496Z,89.4
2017-11-29T00:34:01.167Z,89.3
2017-11-29T00:35:01.852Z,89.7
2017-11-29T00:36:02.501Z,89.5
2017-11-29T00:37:03.170Z,89.7
2017-11-29T00:38:03.887Z,89.7
2017-11-29T00:39:04.558Z,89.7
2017-11-29T00:40:05.226Z,89.6
2017-11-29T00:41:05.897Z,90.0
2017-11-29T00:42:06.564Z,89.7
2017-11-29T00:43:07.235Z,89.7
2017-11-29T00:44:07.905Z,89.7
2017-11-29T00:45:08.572Z,89.3
2017-11-29T00:46:09.240Z,89.3
2017-11-29T00:47:09.914Z,89.3
2017-11-29T00:48:10.576Z,89.1
2017-11-29T00:49:11.248Z,89.2
2017-11-29T00:50:11.916Z,89.3
2017-11-29T00:51:12.585Z,89.1
2017-11-29T00:52:13.255Z,89.3
2017-11-29T00:53:13.923Z,89.4
2017-11-29T00:54:14.591Z,88.9
2017-11-29T00:55:15.259Z,89.1
2017-11-29T00:56:15.928Z,89.3
2017-11-29T00:57:16.597Z,89.0
2017-11-29T00:58:17.314Z,89.0
2017-11-29T00:59:17.981Z,89.1
2017-11-29T01:00:18.652Z,89.3
2017-11-29T01:01:19.319Z,89.4
2017-11-29T01:02:20.036Z,89.0
2017-11-29T01:03:20.709Z,88.8
2017-11-29T01:04:21.422Z,89.0
2017-11-29T01:05:22.093Z,88.9
2017-11-29T01:06:22.761Z,88.5
2017-11-29T01:07:23.431Z,88.9
2017-11-29T01:08:24.099Z,88.8
2017-11-29T01:09:24.767Z,88.8
2017-11-29T01:10:25.436Z,88.7
2017-11-29T01:11:26.103Z,88.3
2017-11-29T01:12:26.774Z,88.1
2017-11-29T01:13:27.441Z,88.4
2017-11-29T01:14:28.111Z,88.2
2017-11-29T01:15:28.779Z,88.2
2017-11-29T01:16:29.498Z,88.5
2017-11-29T01:17:30.164Z,87.7
2017-11-29T01:18:30.834Z,87.9
2017-11-29T01:19:31.504Z,88.3
2017-11-29T01:20:32.169Z,87.9
2017-11-29T01:21:32.845Z,87.9
2017-11-29T01:22:33.510Z,88.4
2017-11-29T01:23:34.175Z,88.0
2017-11-29T01:24:34.842Z,88.2
2017-11-29T01:25:35.511Z,88.1
2017-11-29T01:26:36.180Z,88.4
2017-11-29T01:27:36.850Z,88.1
2017-11-29T01:28:37.523Z,88.4
2017-11-29T01:29:38.184Z,88.2
2017-11-29T01:30:38.855Z,88.3
2017-11-29T01:31:39.524Z,88.2
2017-11-29T01:32:40.195Z,88.1
2017-11-29T01:33:40.911Z,88.3
2017-11-29T01:34:41.579Z,88.2
2017-11-29T01:35:42.255Z,88.4
2017-11-29T01:36:42.915Z,88.4
2017-11-29T01:37:43.635Z,88.0
2017-11-29T01:38:44.312Z,88.4
2017-11-29T01:39:44.973Z,88.0
2017-11-29T01:40:45.643Z,88.2
2017-11-29T01:41:46.310Z,88.3
2017-11-29T01:42:46.978Z,88.1
2017-11-29T01:43:47.646Z,88.0
2017-11-29T01:44:48.316Z,88.5
2017-11-29T01:45:48.983Z,88.2
2017-11-29T01:46:49.655Z,88.2
2017-11-29T01:47:50.321Z,87.9
2017-11-29T01:48:50.990Z,88.4
2017-11-29T01:49:51.657Z,87.7
2017-11-29T01:50:52.327Z,88.2
2017-11-29T01:51:52.993Z,88.1
2017-11-29T01:52:53.662Z,88.3
2017-11-29T01:53:54.332Z,88.5
2017-11-29T01:54:55.002Z,88.5
2017-11-29T01:55:55.666Z,88.9
2017-11-29T01:56:56.337Z,88.6
2017-11-29T01:57:57.056Z,88.8
2017-11-29T01:58:57.723Z,88.5
2017-11-29T01:59:58.393Z,88.8
2017-11-29T02:00:59.060Z,88.7
2017-11-29T02:01:59.729Z,88.9
2017-11-29T02:03:00.447Z,89.2
2017-11-29T02:04:01.114Z,89.4
2017-11-29T02:05:01.785Z,89.3
2017-11-29T02:06:02.453Z,89.3
2017-11-29T02:07:03.126Z,89.2
2017-11-29T02:08:03.793Z,89.3
2017-11-29T02:09:04.461Z,89.3
2017-11-29T02:10:05.129Z,89.2
2017-11-29T02:11:05.799Z,89.6
2017-11-29T02:12:06.467Z,89.6
2017-11-29T02:13:07.138Z,89.7
2017-11-29T02:14:07.805Z,90.0
2017-11-29T02:15:08.475Z,90.1
2017-11-29T02:16:09.143Z,89.9
2017-11-29T02:17:09.860Z,90.5
2017-11-29T02:18:10.530Z,90.5
2017-11-29T02:19:11.199Z,90.1
2017-11-29T02:20:11.867Z,90.5
2017-11-29T02:21:12.549Z,90.6
2017-11-29T02:22:13.206Z,90.5
2017-11-29T02:23:13.874Z,90.4
2017-11-29T02:24:14.543Z,90.2
2017-11-29T02:25:15.216Z,90.4
2017-11-29T02:26:15.880Z,90.5
2017-11-29T02:27:16.547Z,90.4
2017-11-29T02:28:17.215Z,90.5
2017-11-29T02:29:17.882Z,90.4
2017-11-29T02:30:18.554Z,90.8
2017-11-29T02:31:19.219Z,91.2
2017-11-29T02:32:19.889Z,91.3
2017-11-29T02:33:20.556Z,91.0
2017-11-29T02:34:21.227Z,91.0
2017-11-29T02:35:21.898Z,91.0
2017-11-29T02:36:22.561Z,91.3
2017-11-29T02:37:23.229Z,91.5
2017-11-29T02:38:23.947Z,91.4
2017-11-29T02:39:24.615Z,91.9
2017-11-29T02:40:25.283Z,92.0
2017-11-29T02:41:25.950Z,92.1
2017-11-29T02:42:26.620Z,91.7
2017-11-29T02:43:27.288Z,91.8
2017-11-29T02:44:27.957Z,92.0
2017-11-29T02:45:28.624Z,91.9
2017-11-29T02:46:29.295Z,92.0
2017-11-29T02:47:29.962Z,91.9
2017-11-29T02:48:30.629Z,92.0
2017-11-29T02:49:31.303Z,92.0
2017-11-29T02:50:32.015Z,92.7
2017-11-29T02:51:32.683Z,92.6
2017-11-29T02:52:33.351Z,92.6
2017-11-29T02:53:34.022Z,92.4
2017-11-29T02:54:34.691Z,92.9
2017-11-29T02:55:35.358Z,92.9
2017-11-29T02:56:36.029Z,92.6
2017-11-29T02:57:36.699Z,92.9
2017-11-29T02:58:37.365Z,93.7
2017-11-29T02:59:38.035Z,93.5
2017-11-29T03:00:38.704Z,93.4
2017-11-29T03:01:39.380Z,93.7
2017-11-29T03:02:40.040Z,93.7
2017-11-29T03:03:40.708Z,93.7
2017-11-29T03:04:41.376Z,93.6
2017-11-29T03:05:42.043Z,93.6
2017-11-29T03:06:42.710Z,93.7
2017-11-29T03:07:43.379Z,93.6
2017-11-29T03:08:44.098Z,93.8
2017-11-29T03:09:44.767Z,93.7
2017-11-29T03:10:45.436Z,94.0
2017-11-29T03:11:46.105Z,94.1
2017-11-29T03:12:46.773Z,94.2
2017-11-29T03:13:47.439Z,94.1
2017-11-29T03:14:48.108Z,94.1
2017-11-29T03:15:48.778Z,94.3
2017-11-29T03:16:49.444Z,93.9
2017-11-29T03:17:50.113Z,94.0
2017-11-29T03:18:50.779Z,93.6
2017-11-29T03:19:51.456Z,93.8
2017-11-29T03:20:52.166Z,93.3
2017-11-29T03:21:52.834Z,93.2
2017-11-29T03:22:53.505Z,93.3
2017-11-29T03:23:54.172Z,93.3
2017-11-29T03:24:54.842Z,93.6
2017-11-29T03:25:55.508Z,92.9
2017-11-29T03:26:56.181Z,93.1
2017-11-29T03:27:56.846Z,92.7
2017-11-29T03:28:57.513Z,92.7
2017-11-29T03:29:58.180Z,92.8
2017-11-29T03:30:58.855Z,92.7
2017-11-29T03:31:59.520Z,92.2
2017-11-29T03:33:00.185Z,92.4
2017-11-29T03:34:00.854Z,91.8
2017-11-29T03:35:01.522Z,92.2
2017-11-29T03:36:02.190Z,91.5
2017-11-29T03:37:02.857Z,91.6
2017-11-29T03:38:03.528Z,91.9
2017-11-29T03:39:04.196Z,91.8
2017-11-29T03:40:04.864Z,91.9
2017-11-29T03:41:05.581Z,91.2
2017-11-29T03:42:06.251Z,91.3
2017-11-29T03:43:06.925Z,91.1
2017-11-29T03:44:07.586Z,91.3
2017-11-29T03:45:08.252Z,91.3
2017-11-29T03:46:08.921Z,91.1
2017-11-29T03:47:09.591Z,91.2
2017-11-29T03:48:10.261Z,91.3
2017-11-29T03:49:10.928Z,90.9
2017-11-29T03:50:11.596Z,91.1
2017-11-29T03:51:12.264Z,90.6
2017-11-29T03:52:12.931Z,90.9
2017-11-29T03:53:13.598Z,91.1
2017-11-29T03:54:14.268Z,91.1
2017-11-29T03:55:14.934Z,91.4
2017-11-29T03:56:15.608Z,91.3
2017-11-29T03:57:16.319Z,91.7
2017-11-29T03:58:16.987Z,91.9
2017-11-29T03:59:17.657Z,91.7
2017-11-29T04:00:18.323Z,91.5
2017-11-29T04:01:18.991Z,92.0
2017-11-29T04:02:19.660Z,92.0
2017-11-29T04:03:20.329Z,92.0
2017-11-29T04:04:20.996Z,91.7
2017-11-29T04:05:21.671Z,92.1
2017-11-29T04:06:22.332Z,92.0
2017-11-29T04:07:23.002Z,92.0
2017-11-29T04:08:23.669Z,92.6
2017-11-29T04:09:24.386Z,92.7
2017-11-29T04:10:25.059Z,92.7
2017-11-29T04:11:25.724Z,92.5
2017-11-29T04:12:26.392Z,92.7
2017-11-29T04:13:27.063Z,92.8
2017-11-29T04:14:27.732Z,92.4
2017-11-29T04:15:28.400Z,92.7
2017-11-29T04:16:29.071Z,92.6
2017-11-29T04:17:29.738Z,92.7
2017-11-29T04:18:30.409Z,92.3
2017-11-29T04:19:31.073Z,92.7
2017-11-29T04:20:31.744Z,92.5
2017-11-29T04:21:32.414Z,92.7
2017-11-29T04:22:33.098Z,92.9
2017-11-29T04:23:33.750Z,93.1
2017-11-29T04:24:34.419Z,93.1
2017-11-29T04:25:35.087Z,92.3
2017-11-29T04:26:35.756Z,92.9
2017-11-29T04:27:36.423Z,92.5
2017-11-29T04:28:37.109Z,92.8
2017-11-29T04:29:37.763Z,92.7
2017-11-29T04:30:38.430Z,92.4
2017-11-29T04:31:39.147Z,92.6
2017-11-29T04:32:39.814Z,92.7
2017-11-29T04:33:40.483Z,92.8
2017-11-29T04:34:41.158Z,92.7
2017-11-29T04:35:41.819Z,92.3
2017-11-29T04:36:42.486Z,92.0
2017-11-29T04:37:43.158Z,92.2
2017-11-29T04:38:43.830Z,92.7
2017-11-29T04:39:44.492Z,92.5
2017-11-29T04:40:45.159Z,93.1
2017-11-29T04:41:45.833Z,92.4
2017-11-29T04:42:46.495Z,92.8
2017-11-29T04:43:47.164Z,92.9
2017-11-29T04:44:47.831Z,92.2
2017-11-29T04:45:48.500Z,92.5
2017-11-29T04:46:49.167Z,92.8
2017-11-29T04:47:49.837Z,92.6
2017-11-29T04:48:50.506Z,92.5
2017-11-29T04:49:51.175Z,93.1
2017-11-29T04:50:51.842Z,92.7
2017-11-29T04:51:52.513Z,93.0
2017-11-29T04:52:53.181Z,92.8
2017-11-29T04:53:53.847Z,92.6
2017-11-29T04:54:54.515Z,92.7
2017-11-29T04:55:55.187Z,93.7
2017-11-29T04:56:55.851Z,93.5
2017-11-29T04:57:56.519Z,93.5
2017-11-29T04:58:57.185Z,92.7
2017-11-29T04:59:57.854Z,92.7
2017-11-29T05:00:58.524Z,93.2
2017-11-29T05:01:59.193Z,93.7
2017-11-29T05:02:59.861Z,93.5
2017-11-29T05:04:00.576Z,93.5
2017-11-29T05:05:01.290Z,93.4
2017-11-29T05:06:01.957Z,93.6
2017-11-29T05:07:02.626Z,94.3
2017-11-29T05:08:03.294Z,94.0
2017-11-29T05:09:03.963Z,94.1
2017-11-29T05:10:04.630Z,94.2
2017-11-29T05:11:05.300Z,93.8
2017-11-29T05:12:05.967Z,94.1
2017-11-29T05:13:06.635Z,94.0
2017-11-29T05:14:07.303Z,93.4
2017-11-29T05:15:07.973Z,93.6
2017-11-29T05:16:08.640Z,94.0
2017-11-29T05:17:09.307Z,94.3
2017-11-29T05:18:09.976Z,93.8
2017-11-29T05:19:10.645Z,94.0
2017-11-29T05:20:11.314Z,94.2
2017-11-29T05:21:11.981Z,94.1
2017-11-29T05:22:12.646Z,94.3
2017-11-29T05:23:13.316Z,94.1
2017-11-29T05:24:13.984Z,94.8
2017-11-29T05:25:14.652Z,95.0
2017-11-29T05:26:15.322Z,95.0
2017-11-29T05:27:15.990Z,95.0
2017-11-29T05:28:16.657Z,94.6
2017-11-29T05:29:17.326Z,94.8
2017-11-29T05:30:17.995Z,93.9
2017-11-29T05:31:18.662Z,94.5
2017-11-29T05:32:19.331Z,94.3
2017-11-29T05:33:19.998Z,94.4
2017-11-29T05:34:20.669Z,94.5
2017-11-29T05:35:21.335Z,94.3
2017-11-29T05:36:22.003Z,94.2
2017-11-29T05:37:22.669Z,93.9
2017-11-29T05:38:23.386Z,94.1
2017-11-29T05:39:24.057Z,94.1
2017-11-29T05:40:24.723Z,94.3
2017-11-29T05:41:25.390Z,94.0
2017-11-29T05:42:26.059Z,93.9
2017-11-29T05:43:26.728Z,93.9
2017-11-29T05:44:27.393Z,94.0
2017-11-29T05:45:28.061Z,93.8
2017-11-29T05:46:28.730Z,94.2
2017-11-29T05:47:29.399Z,94.8
2017-11-29T05:48:30.068Z,94.8
2017-11-29T05:49:30.737Z,94.5
2017-11-29T05:50:31.404Z,94.7
2017-11-29T05:51:32.072Z,95.0
2017-11-29T05:52:32.739Z,95.0
2017-11-29T05:53:33.410Z,95.2
2017-11-29T05:54:34.076Z,94.9
2017-11-29T05:55:34.798Z,94.8
2017-11-29T05:56:35.465Z,94.8
2017-11-29T05:57:36.131Z,94.8
2017-11-29T05:58:36.800Z,94.8
2017-11-29T05:59:37.468Z,94.8
2017-11-29T06:00:38.137Z,94.8
2017-11-29T06:01:38.803Z,95.0
2017-11-29T06:02:39.473Z,95.1
2017-11-29T06:03:40.140Z,94.4
2017-11-29T06:04:40.809Z,94.2
2017-11-29T06:05:41.488Z,94.0
2017-11-29T06:06:42.145Z,94.1
2017-11-29T06:07:42.815Z,94.1
2017-11-29T06:08:43.528Z,94.3
2017-11-29T06:09:44.198Z,93.9
2017-11-29T06:10:44.865Z,94.0
2017-11-29T06:11:45.538Z,93.2
2017-11-29T06:12:46.247Z,93.9
2017-11-29T06:13:46.917Z,93.9
2017-11-29T06:14:47.584Z,94.2
2017-11-29T06:15:48.253Z,93.5
2017-11-29T06:16:48.921Z,93.8
2017-11-29T06:17:49.590Z,93.3
2017-11-29T06:18:50.258Z,93.9
2017-11-29T06:19:50.927Z,93.7
2017-11-29T06:20:51.594Z,93.6
2017-11-29T06:21:52.262Z,93.3
2017-11-29T06:22:52.930Z,93.0
2017-11-29T06:23:53.599Z,93.5
2017-11-29T06:24:54.265Z,93.3
2017-11-29T06:25:54.937Z,93.7
2017-11-29T06:26:55.602Z,92.8
2017-11-29T06:27:56.271Z,92.9
2017-11-29T06:28:56.994Z,92.9
2017-11-29T06:29:57.656Z,92.8
2017-11-29T06:30:58.337Z,92.7
2017-11-29T06:31:58.994Z,92.4
2017-11-29T06:32:59.662Z,92.8
2017-11-29T06:34:00.331Z,92.7
2017-11-29T06:35:01.001Z,92.6
2017-11-29T06:36:01.672Z,92.8
2017-11-29T06:37:02.341Z,92.6
2017-11-29T06:38:03.011Z,92.9
2017-11-29T06:39:03.683Z,92.0
2017-11-29T06:40:04.350Z,91.7
2017-11-29T06:41:05.018Z,92.0
2017-11-29T06:42:05.699Z,92.2
2017-11-29T06:43:06.371Z,92.2
2017-11-29T06:44:07.029Z,91.6
2017-11-29T06:45:07.699Z,91.6
2017-11-29T06:46:08.367Z,91.9
2017-11-29T06:47:09.036Z,91.9
2017-11-29T06:48:09.705Z,91.9
2017-11-29T06:49:10.385Z,92.3
2017-11-29T06:50:11.046Z,92.3
2017-11-29T06:51:11.715Z,92.9
2017-11-29T06:52:12.384Z,92.8
2017-11-29T06:53:13.057Z,92.8
2017-11-29T06:54:13.733Z,92.3
2017-11-29T06:55:14.429Z,91.8
2017-11-29T06:56:15.071Z,91.5
2017-11-29T06:57:15.740Z,91.9
2017-11-29T06:58:16.409Z,91.7
2017-11-29T06:59:17.082Z,91.8
2017-11-29T07:00:17.753Z,92.0
2017-11-29T07:01:18.472Z,91.8
2017-11-29T07:02:19.145Z,91.6
2017-11-29T07:03:19.816Z,91.7
2017-11-29T07:04:20.485Z,91.6
2017-11-29T07:05:21.159Z,91.3
2017-11-29T07:06:21.829Z,91.2
2017-11-29T07:07:22.503Z,91.4
2017-11-29T07:08:23.225Z,91.2
2017-11-29T07:09:23.897Z,91.1
2017-11-29T07:10:24.569Z,91.0
2017-11-29T07:11:25.241Z,91.1
2017-11-29T07:12:25.918Z,90.8
2017-11-29T07:13:26.585Z,90.2
2017-11-29T07:14:27.264Z,90.2
2017-11-29T07:15:27.977Z,90.2
2017-11-29T07:16:28.650Z,90.2
2017-11-29T07:17:29.324Z,90.2
2017-11-29T07:18:29.996Z,90.1
2017-11-29T07:19:30.671Z,90.4
2017-11-29T07:20:31.346Z,90.3
2017-11-29T07:21:32.015Z,90.5
2017-11-29T07:22:32.691Z,90.4
2017-11-29T07:23:33.362Z,90.6
2017-11-29T07:24:34.033Z,90.1
2017-11-29T07:25:34.706Z,90.6
2017-11-29T07:26:35.379Z,90.1
2017-11-29T07:27:36.049Z,90.1
2017-11-29T07:28:36.721Z,90.2
2017-11-29T07:29:37.393Z,90.2
2017-11-29T07:30:38.066Z,90.6
2017-11-29T07:31:38.787Z,90.0
2017-11-29T07:32:39.457Z,90.2
2017-11-29T07:33:40.131Z,90.0
2017-11-29T07:34:40.803Z,89.8
2017-11-29T07:35:41.478Z,89.8
2017-11-29T07:36:42.150Z,89.8
2017-11-29T07:37:42.823Z,89.7
2017-11-29T07:38:43.503Z,89.8
2017-11-29T07:39:44.170Z,89.4
2017-11-29T07:40:44.846Z,89.3
2017-11-29T07:41:45.519Z,89.0
2017-11-29T07:42:46.193Z,89.2
2017-11-29T07:43:46.866Z,89.2
2017-11-29T07:44:47.539Z,89.3
2017-11-29T07:45:48.217Z,89.1
2017-11-29T07:46:48.934Z,89.0
2017-11-29T07:47:49.608Z,89.4
2017-11-29T07:48:50.282Z,89.4
2017-11-29T07:49:50.956Z,89.4
2017-11-29T07:50:51.631Z,89.6
2017-11-29T07:51:52.305Z,89.8
2017-11-29T07:52:52.981Z,89.6
2017-11-29T07:53:53.654Z,89.4
2017-11-29T07:54:54.328Z,89.4
2017-11-29T07:55:55.002Z,89.5
2017-11-29T07:56:55.726Z,88.4
2017-11-29T07:57:56.401Z,88.7
2017-11-29T07:58:57.089Z,88.4
2017-11-29T07:59:57.748Z,88.1
2017-11-29T08:00:58.423Z,88.0
2017-11-29T08:01:59.098Z,88.2
2017-11-29T08:02:59.769Z,88.1
2017-11-29T08:04:00.445Z,88.2
2017-11-29T08:05:01.119Z,87.8
2017-11-29T08:06:01.793Z,88.1
2017-11-29T08:07:02.477Z,87.6
2017-11-29T08:08:03.138Z,87.2
2017-11-29T08:09:03.819Z,87.1
2017-11-29T08:10:04.487Z,86.6
2017-11-29T08:11:05.162Z,86.1
2017-11-29T08:12:05.887Z,85.7
2017-11-29T08:13:06.561Z,85.3
2017-11-29T08:14:07.235Z,86.0
2017-11-29T08:15:07.925Z,85.3
2017-11-29T08:16:08.583Z,85.7
2017-11-29T08:17:09.259Z,85.7
2017-11-29T08:18:09.933Z,85.7
2017-11-29T08:19:10.606Z,85.5
2017-11-29T08:20:11.281Z,85.6
2017-11-29T08:21:11.956Z,85.3
2017-11-29T08:22:12.629Z,84.9
2017-11-29T08:23:13.304Z,84.7
2017-11-29T08:24:13.978Z,84.7
2017-11-29T08:25:14.651Z,84.4
2017-11-29T08:26:15.324Z,84.9
2017-11-29T08:27:15.999Z,84.7
2017-11-29T08:28:16.674Z,84.4
2017-11-29T08:29:17.349Z,84.2
2017-11-29T08:30:18.022Z,83.7
2017-11-29T08:31:18.751Z,83.9
2017-11-29T08:32:19.467Z,83.3
2017-11-29T08:33:20.143Z,83.1
2017-11-29T08:34:20.818Z,82.9
2017-11-29T08:35:21.492Z,82.8
2017-11-29T08:36:22.168Z,82.7
2017-11-29T08:37:22.844Z,83.1
2017-11-29T08:38:23.519Z,83.0
2017-11-29T08:39:24.194Z,83.0
2017-11-29T08:40:24.867Z,82.8
2017-11-29T08:41:25.541Z,82.8
2017-11-29T08:42:26.288Z,82.2
2017-11-29T08:43:26.939Z,82.2
2017-11-29T08:44:27.614Z,81.9
2017-11-29T08:45:28.287Z,82.5
2017-11-29T08:46:28.961Z,82.4
2017-11-29T08:47:29.686Z,83.0
2017-11-29T08:48:30.372Z,82.7
2017-11-29T08:49:31.038Z,81.5
2017-11-29T08:50:31.712Z,81.1
2017-11-29T08:51:32.390Z,81.2
2017-11-29T08:52:33.111Z,81.0
2017-11-29T08:53:33.786Z,80.4
2017-11-29T08:54:34.462Z,79.9
2017-11-29T08:55:35.138Z,80.0
2017-11-29T08:56:35.812Z,80.1
2017-11-29T08:57:36.488Z,79.4
2017-11-29T08:58:37.163Z,79.7
2017-11-29T08:59:37.839Z,79.9
2017-11-29T09:00:38.514Z,79.5
2017-11-29T09:01:39.196Z,79.7
2017-11-29T09:02:39.865Z,80.1
2017-11-29T09:03:40.540Z,80.1
2017-11-29T09:04:41.264Z,79.9
2017-11-29T09:05:41.936Z,80.2
2017-11-29T09:06:42.614Z,80.0
2017-11-29T09:07:43.339Z,79.9
2017-11-29T09:08:44.014Z,79.4
2017-11-29T09:09:44.690Z,79.6
2017-11-29T09:10:45.366Z,78.8
2017-11-29T09:11:46.040Z,78.9
2017-11-29T09:12:46.768Z,78.9
2017-11-29T09:13:47.491Z,79.0
2017-11-29T09:14:48.213Z,78.6
2017-11-29T09:15:48.888Z,78.4
2017-11-29T09:16:49.563Z,78.2
2017-11-29T09:17:50.239Z,79.1
2017-11-29T09:18:50.913Z,78.9
2017-11-29T09:19:51.589Z,78.9
2017-11-29T09:20:52.268Z,78.9
2017-11-29T09:21:52.940Z,79.0
2017-11-29T09:22:53.667Z,78.8
2017-11-29T09:23:54.342Z,78.7
2017-11-29T09:24:55.019Z,78.2
2017-11-29T09:25:55.694Z,78.2
2017-11-29T09:26:56.369Z,78.0
2017-11-29T09:27:57.045Z,78.3
2017-11-29T09:28:57.720Z,77.4
2017-11-29T09:29:58.394Z,77.0
2017-11-29T09:30:59.072Z,76.3
2017-11-29T09:31:59.748Z,76.4
2017-11-29T09:33:00.424Z,76.9
2017-11-29T09:34:01.100Z,76.1
2017-11-29T09:35:01.778Z,75.5
2017-11-29T09:36:02.456Z,76.2
2017-11-29T09:37:03.135Z,75.5
2017-11-29T09:38:03.823Z,75.6
2017-11-29T09:39:04.534Z,75.2
2017-11-29T09:40:05.209Z,75.2
2017-11-29T09:41:05.892Z,75.2
2017-11-29T09:42:06.562Z,74.7
2017-11-29T09:43:07.236Z,74.9
2017-11-29T09:44:07.913Z,75.5
2017-11-29T09:45:08.590Z,75.7
2017-11-29T09:46:09.266Z,75.9
2017-11-29T09:47:09.942Z,75.3
2017-11-29T09:48:10.617Z,75.1
2017-11-29T09:49:11.294Z,75.5
2017-11-29T09:50:11.970Z,75.5
2017-11-29T09:51:12.645Z,75.0
2017-11-29T09:52:13.325Z,75.7
2017-11-29T09:53:13.996Z,75.4
2017-11-29T09:54:14.671Z,75.4
2017-11-29T09:55:15.350Z,75.3
2017-11-29T09:56:16.025Z,74.7
2017-11-29T09:57:16.700Z,74.6
2017-11-29T09:58:17.377Z,74.6
2017-11-29T09:59:18.055Z,75.3
2017-11-29T10:00:18.731Z,74.9
2017-11-29T10:01:19.407Z,74.9
2017-11-29T10:02:20.084Z,75.2
2017-11-29T10:03:20.812Z,74.6
2017-11-29T10:04:21.488Z,74.2
2017-11-29T10:05:22.186Z,74.2
2017-11-29T10:06:22.840Z,74.1
2017-11-29T10:07:23.516Z,74.2
2017-11-29T10:08:24.194Z,74.8
2017-11-29T10:09:24.870Z,75.1
2017-11-29T10:10:25.546Z,75.3
2017-11-29T10:11:26.223Z,74.9
2017-11-29T10:12:26.900Z,74.6
2017-11-29T10:13:27.578Z,75.5
2017-11-29T10:14:28.253Z,75.4
2017-11-29T10:15:28.929Z,75.5
2017-11-29T10:16:29.608Z,75.3
2017-11-29T10:17:30.283Z,75.2
2017-11-29T10:18:30.960Z,74.9
2017-11-29T10:19:31.636Z,75.5
2017-11-29T10:20:32.314Z,75.8
2017-11-29T10:21:32.989Z,75.3
2017-11-29T10:22:33.668Z,75.5
2017-11-29T10:23:34.341Z,75.5
2017-11-29T10:24:35.016Z,75.1
2017-11-29T10:25:35.693Z,75.5
2017-11-29T10:26:36.369Z,75.2
2017-11-29T10:27:37.047Z,75.0
2017-11-29T10:28:37.723Z,74.6
2017-11-29T10:29:38.397Z,74.8
2017-11-29T10:30:39.075Z,74.6
2017-11-29T10:31:39.752Z,74.7
2017-11-29T10:32:40.427Z,74.7
2017-11-29T10:33:41.104Z,74.3
2017-11-29T10:34:41.782Z,74.8
2017-11-29T10:35:42.463Z,74.8
2017-11-29T10:36:43.133Z,74.8
2017-11-29T10:37:43.810Z,74.7
2017-11-29T10:38:44.521Z,74.7
2017-11-29T10:39:45.163Z,74.7
2017-11-29T10:40:45.839Z,74.7
2017-11-29T10:41:46.516Z,74.7
2017-11-29T10:42:47.192Z,75.2
2017-11-29T10:43:47.918Z,74.9
2017-11-29T10:44:48.592Z,74.7
2017-11-29T10:45:49.268Z,74.6
2017-11-29T10:46:49.945Z,74.8
2017-11-29T10:47:50.622Z,74.8
2017-11-29T10:48:51.396Z,74.9
2017-11-29T10:49:52.072Z,74.7
2017-11-29T10:50:52.748Z,75.2
2017-11-29T10:51:53.425Z,74.9
2017-11-29T10:52:54.104Z,74.7
2017-11-29T10:53:54.828Z,74.6
2017-11-29T10:54:55.504Z,75.6
2017-11-29T10:55:56.182Z,75.3
2017-11-29T10:56:56.859Z,75.4
2017-11-29T10:57:57.536Z,74.7
2017-11-29T10:58:58.211Z,74.7
2017-11-29T10:59:58.888Z,74.7
2017-11-29T11:00:59.563Z,74.6
2017-11-29T11:02:00.242Z,75.1
2017-11-29T11:03:00.918Z,75.1
2017-11-29T11:04:01.645Z,75.0
2017-11-29T11:05:02.336Z,75.6
2017-11-29T11:06:02.999Z,76.2
2017-11-29T11:07:03.673Z,75.5
2017-11-29T11:08:04.359Z,76.2
2017-11-29T11:09:05.075Z,76.1
2017-11-29T11:10:05.753Z,76.2
2017-11-29T11:11:06.432Z,76.5
2017-11-29T11:12:07.107Z,76.6
2017-11-29T11:13:07.783Z,76.3
2017-11-29T11:14:08.459Z,76.4
2017-11-29T11:15:09.185Z,76.3
2017-11-29T11:16:09.870Z,77.1
2017-11-29T11:17:10.543Z,77.0
2017-11-29T11:18:11.215Z,77.2
2017-11-29T11:19:11.892Z,77.2
2017-11-29T11:20:12.569Z,76.7
2017-11-29T11:21:13.289Z,76.8
2017-11-29T11:22:13.920Z,77.3
2017-11-29T11:23:14.608Z,77.1
2017-11-29T11:24:15.323Z,76.8
2017-11-29T11:25:15.999Z,77.1
2017-11-29T11:26:16.676Z,77.4
2017-11-29T11:27:17.353Z,77.5
2017-11-29T11:28:18.027Z,77.1
2017-11-29T11:29:18.755Z,77.8
2017-11-29T11:30:19.478Z,77.3
2017-11-29T11:31:20.153Z,77.6
2017-11-29T11:32:20.832Z,77.0
2017-11-29T11:33:21.507Z,77.1
2017-11-29T11:34:22.232Z,77.1
2017-11-29T11:35:22.906Z,76.4
2017-11-29T11:36:23.583Z,76.6
2017-11-29T11:37:24.259Z,76.3
2017-11-29T11:38:24.935Z,76.6
2017-11-29T11:39:25.610Z,77.1
2017-11-29T11:40:26.287Z,76.6
2017-11-29T11:41:26.963Z,76.2
2017-11-29T11:42:27.638Z,76.5
2017-11-29T11:43:28.314Z,76.4
2017-11-29T11:44:29.043Z,76.7
2017-11-29T11:45:29.718Z,76.4
2017-11-29T11:46:30.396Z,76.9
2017-11-29T11:47:31.072Z,76.4
2017-11-29T11:48:31.747Z,76.4
2017-11-29T11:49:32.475Z,76.5
2017-11-29T11:50:33.153Z,76.2
2017-11-29T11:51:33.831Z,76.4
2017-11-29T11:52:34.552Z,76.1
2017-11-29T11:53:35.231Z,76.2
2017-11-29T11:54:35.910Z,76.2
2017-11-29T11:55:36.587Z,76.4
2017-11-29T11:56:37.263Z,76.2
2017-11-29T11:57:37.940Z,76.3
2017-11-29T11:58:38.619Z,75.6
2017-11-29T11:59:39.306Z,75.7
2017-11-29T12:00:40.025Z,75.2
2017-11-29T12:01:40.724Z,74.9
2017-11-29T12:02:41.383Z,75.1
2017-11-29T12:03:42.058Z,74.8
2017-11-29T12:04:42.737Z,74.8
2017-11-29T12:05:43.420Z,74.8
2017-11-29T12:06:44.094Z,74.1
2017-11-29T12:07:44.778Z,73.2
2017-11-29T12:08:45.461Z,73.3
2017-11-29T12:09:46.129Z,72.7
2017-11-29T12:10:46.806Z,72.7
2017-11-29T12:11:47.483Z,72.4
2017-11-29T12:12:48.161Z,72.9
2017-11-29T12:13:48.839Z,72.8
2017-11-29T12:14:49.518Z,73.0
2017-11-29T12:15:50.197Z,73.7
2017-11-29T12:16:50.883Z,73.3
2017-11-29T12:17:51.552Z,73.5
2017-11-29T12:18:52.229Z,73.4
2017-11-29T12:19:52.908Z,73.3
2017-11-29T12:20:53.586Z,73.3
2017-11-29T12:21:54.263Z,73.3
2017-11-29T12:22:54.941Z,73.0
2017-11-29T12:23:55.620Z,73.1
2017-11-29T12:24:56.299Z,73.4
2017-11-29T12:25:56.978Z,72.9
2017-11-29T12:26:57.654Z,72.9
2017-11-29T12:27:58.333Z,73.1
2017-11-29T12:28:59.015Z,73.4
2017-11-29T12:29:59.740Z,73.9
2017-11-29T12:31:00.418Z,73.6
2017-11-29T12:32:01.107Z,73.4
2017-11-29T12:33:01.779Z,73.9
2017-11-29T12:34:02.504Z,73.6
2017-11-29T12:35:03.183Z,72.6
2017-11-29T12:36:03.861Z,72.9
2017-11-29T12:37:04.540Z,73.0
2017-11-29T12:38:05.219Z,73.1
2017-11-29T12:39:05.897Z,73.0
2017-11-29T12:40:06.580Z,73.2
2017-11-29T12:41:07.255Z,73.1
2017-11-29T12:42:07.934Z,72.2
2017-11-29T12:43:08.614Z,72.6
2017-11-29T12:44:09.293Z,72.3
2017-11-29T12:45:09.972Z,72.4
2017-11-29T12:46:10.649Z,71.9
2017-11-29T12:47:11.331Z,72.2
2017-11-29T12:48:12.010Z,72.4
2017-11-29T12:49:12.686Z,72.7
2017-11-29T12:50:13.366Z,72.3
2017-11-29T12:51:14.044Z,72.1
2017-11-29T12:52:14.726Z,72.5
2017-11-29T12:53:15.449Z,72.1
2017-11-29T12:54:16.135Z,71.8
2017-11-29T12:55:16.805Z,72.2
2017-11-29T12:56:17.485Z,72.1
2017-11-29T12:57:18.210Z,71.3
2017-11-29T12:58:18.888Z,71.2
2017-11-29T12:59:19.564Z,72.2
2017-11-29T13:00:20.243Z,72.1
2017-11-29T13:01:20.922Z,72.0
2017-11-29T13:02:21.648Z,72.0
2017-11-29T13:03:22.326Z,71.9
2017-11-29T13:04:23.001Z,71.4
2017-11-29T13:05:23.730Z,71.7
2017-11-29T13:06:24.406Z,71.9
2017-11-29T13:07:25.084Z,72.3
2017-11-29T13:08:25.764Z,71.4
2017-11-29T13:09:26.440Z,71.8
2017-11-29T13:10:27.117Z,72.0
2017-11-29T13:11:27.794Z,71.8
2017-11-29T13:12:28.472Z,72.1
2017-11-29T13:13:29.148Z,72.1
2017-11-29T13:14:29.825Z,72.4
2017-11-29T13:15:30.553Z,72.6
2017-11-29T13:16:31.232Z,73.1
2017-11-29T13:17:31.909Z,73.1
2017-11-29T13:18:32.586Z,72.9
2017-11-29T13:19:33.262Z,72.9
2017-11-29T13:20:33.991Z,73.3
2017-11-29T13:21:34.667Z,73.1
2017-11-29T13:22:35.346Z,72.4
2017-11-29T13:23:36.023Z,72.7
2017-11-29T13:24:36.699Z,73.2
2017-11-29T13:25:37.427Z,72.9
2017-11-29T13:26:38.104Z,73.2
2017-11-29T13:27:38.782Z,73.3